createdAt,value
2018-12-02T00:00:58.007Z,10.27
2018-12-02T00:05:00.388Z,12.03
2018-12-02T00:09:03.377Z,11.23
2018-12-02T00:13:06.040Z,12.63
2018-12-02T00:17:08.377Z,17.50
2018-12-02T00:21:10.787Z,14.80
2018-12-02T00:25:13.991Z,15.90
2018-12-02T00:29:16.355Z,14.67
2018-12-02T00:33:18.706Z,14.23
2018-12-02T00:37:21.045Z,13.30
2018-12-02T00:41:23.466Z,14.93
2018-12-02T00:45:31.765Z,16.43
2018-12-02T00:49:34.155Z,18.63
2018-12-02T00:53:36.552Z,20.40
2018-12-02T00:57:38.940Z,20.77
2018-12-02T01:01:41.305Z,17.07
2018-12-02T01:05:43.718Z,16.23
2018-12-02T01:09:46.187Z,14.93
2018-12-02T01:13:48.667Z,15.30
2018-12-02T01:17:51.129Z,17.20
2018-12-02T01:21:53.590Z,14.37
2018-12-02T01:25:56.096Z,17.63
2018-12-02T01:29:58.494Z,13.30
2018-12-02T01:34:00.951Z,12.70
2018-12-02T01:38:03.436Z,12.50
2018-12-02T01:42:05.854Z,19.63
2018-12-02T01:46:08.173Z,20.20
2018-12-02T01:50:15.025Z,13.13
2018-12-02T01:54:17.439Z,14.17
2018-12-02T01:58:19.825Z,14.57
2018-12-02T02:02:22.262Z,14.93
2018-12-02T02:06:24.685Z,15.20
2018-12-02T02:10:27.994Z,14.87
2018-12-02T02:14:30.480Z,17.53
2018-12-02T02:18:32.886Z,15.27
2018-12-02T02:22:35.254Z,16.77
2018-12-02T02:26:37.688Z,17.73
2018-12-02T02:30:40.795Z,14.93
2018-12-02T02:34:43.211Z,18.50
2018-12-02T02:38:45.605Z,16.43
2018-12-02T02:42:48.038Z,16.00
2018-12-02T02:46:50.450Z,20.17
2018-12-02T02:50:52.812Z,18.67
2018-12-02T02:54:55.164Z,19.83
2018-12-02T02:58:57.590Z,21.43
2018-12-02T03:02:59.994Z,17.20
2018-12-02T03:07:02.499Z,20.03
2018-12-02T03:11:04.950Z,17.53
2018-12-02T03:15:10.680Z,19.07
2018-12-02T03:19:12.995Z,18.20
2018-12-02T03:23:15.380Z,20.33
2018-12-02T03:27:17.735Z,16.20
2018-12-02T03:31:20.066Z,16.70
2018-12-02T03:35:23.445Z,18.10
2018-12-02T03:39:25.828Z,18.20
2018-12-02T03:43:28.119Z,17.17
2018-12-02T03:47:30.449Z,18.37
2018-12-02T03:51:32.746Z,18.03
2018-12-02T03:55:35.142Z,25.60
2018-12-02T03:59:37.495Z,18.90
2018-12-02T04:03:39.845Z,17.67
2018-12-02T04:07:42.194Z,16.63
2018-12-02T04:11:44.662Z,14.60
2018-12-02T04:15:47.049Z,14.17
2018-12-02T04:19:49.405Z,13.50
2018-12-02T04:23:51.710Z,11.40
2018-12-02T04:27:54.212Z,11.87
2018-12-02T04:31:56.515Z,10.60
2018-12-02T04:35:58.856Z,9.03
2018-12-02T04:40:01.198Z,10.43
2018-12-02T04:44:03.828Z,10.37
2018-12-02T04:48:06.272Z,10.70
2018-12-02T04:52:08.690Z,8.83
2018-12-02T04:56:11.150Z,10.80
2018-12-02T05:00:17.514Z,11.13
2018-12-02T05:04:19.950Z,8.57
2018-12-02T05:08:23.193Z,6.90
2018-12-02T05:12:25.778Z,6.37
2018-12-02T05:16:28.184Z,5.80
2018-12-02T05:20:30.509Z,6.23
2018-12-02T05:24:32.929Z,5.60
2018-12-02T05:28:35.260Z,5.43
2018-12-02T05:32:37.670Z,6.97
2018-12-02T05:36:40.023Z,6.17
2018-12-02T05:40:42.515Z,6.23
2018-12-02T05:44:45.127Z,5.80
2018-12-02T05:48:47.476Z,4.50
2018-12-02T05:52:58.391Z,3.93
2018-12-02T05:57:00.751Z,3.77
2018-12-02T06:01:03.117Z,4.73
2018-12-02T06:05:06.629Z,3.37
2018-12-02T06:09:09.548Z,4.37
2018-12-02T06:13:11.883Z,3.47
2018-12-02T06:17:14.265Z,5.27
2018-12-02T06:21:17.637Z,2.70
2018-12-02T06:25:20.058Z,2.57
2018-12-02T06:29:22.639Z,4.07
2018-12-02T06:33:25.047Z,3.30
2018-12-02T06:37:27.538Z,1.70
2018-12-02T06:41:30.194Z,3.00
2018-12-02T06:45:32.708Z,2.47
2018-12-02T06:49:35.969Z,1.77
2018-12-02T06:53:39.142Z,1.27
2018-12-02T06:57:44.664Z,2.20
2018-12-02T07:02:02.108Z,1.23
2018-12-02T07:06:04.826Z,0.90
2018-12-02T07:10:07.538Z,1.57
2018-12-02T07:14:10.301Z,0.90
2018-12-02T07:18:15.211Z,1.00
2018-12-02T07:22:25.081Z,1.60
2018-12-02T07:26:28.092Z,1.37
2018-12-02T07:30:30.512Z,1.37
2018-12-02T07:34:32.918Z,1.40
2018-12-02T07:38:44.969Z,1.43
2018-12-02T07:42:47.352Z,1.33
2018-12-02T07:46:49.707Z,1.80
2018-12-02T07:50:52.191Z,1.27
2018-12-02T07:54:54.524Z,0.97
2018-12-02T07:58:56.957Z,2.17
2018-12-02T08:02:59.358Z,1.07
2018-12-02T08:07:01.786Z,1.10
2018-12-02T08:11:04.224Z,2.40
2018-12-02T08:15:10.688Z,1.57
2018-12-02T08:19:13.095Z,1.20
2018-12-02T08:23:15.404Z,1.70
2018-12-02T08:27:17.789Z,1.13
2018-12-02T08:31:20.172Z,1.50
2018-12-02T08:35:25.061Z,1.20
2018-12-02T08:39:27.389Z,1.43
2018-12-02T08:43:29.773Z,2.83
2018-12-02T08:47:32.125Z,2.47
2018-12-02T08:51:34.495Z,2.40
2018-12-02T08:55:36.947Z,3.93
2018-12-02T08:59:39.388Z,1.47
2018-12-02T09:03:41.775Z,1.80
2018-12-02T09:07:44.247Z,1.93
2018-12-02T09:11:46.605Z,0.90
2018-12-02T09:15:49.064Z,2.43
2018-12-02T09:19:51.462Z,1.67
2018-12-02T09:23:53.871Z,1.10
2018-12-02T09:27:56.275Z,1.60
2018-12-02T09:31:58.746Z,3.60
2018-12-02T09:36:01.109Z,2.40
2018-12-02T09:40:04.300Z,4.83
2018-12-02T09:44:06.709Z,2.80
2018-12-02T09:48:09.063Z,2.50
2018-12-02T09:52:11.456Z,3.03
2018-12-02T09:56:13.861Z,2.20
2018-12-02T10:00:17.737Z,1.60
2018-12-02T10:04:20.171Z,3.07
2018-12-02T10:08:23.428Z,4.90
2018-12-02T10:12:25.876Z,4.90
2018-12-02T10:16:28.246Z,5.27
2018-12-02T10:20:30.691Z,5.00
2018-12-02T10:24:33.895Z,1.50
2018-12-02T10:28:36.272Z,1.30
2018-12-02T10:32:38.675Z,10.40
2018-12-02T10:36:41.091Z,2.43
2018-12-02T10:40:43.522Z,1.30
2018-12-02T10:44:45.919Z,2.33
2018-12-02T10:48:48.276Z,3.47
2018-12-02T10:52:51.443Z,2.80
2018-12-02T10:56:53.807Z,1.60
2018-12-02T11:01:03.624Z,0.40
2018-12-02T11:05:06.030Z,0.20
2018-12-02T11:09:10.214Z,0.50
2018-12-02T11:13:12.589Z,0.50
2018-12-02T11:17:14.966Z,0.50
2018-12-02T11:21:17.385Z,0.50
2018-12-02T11:25:19.851Z,0.70
2018-12-02T11:29:22.238Z,1.00
2018-12-02T11:33:24.680Z,2.43
2018-12-02T11:37:27.115Z,0.50
2018-12-02T11:41:29.544Z,1.53
2018-12-02T11:45:31.885Z,1.23
2018-12-02T11:49:34.248Z,1.00
2018-12-02T11:53:36.729Z,0.70
2018-12-02T11:57:39.335Z,0.90
2018-12-02T12:01:41.768Z,0.87
2018-12-02T12:05:44.206Z,0.60
2018-12-02T12:09:46.596Z,0.70
2018-12-02T12:13:49.035Z,1.10
2018-12-02T12:17:51.534Z,1.20
2018-12-02T12:21:54.446Z,1.00
2018-12-02T12:25:56.839Z,2.00
2018-12-02T12:29:59.307Z,1.43
2018-12-02T12:34:01.759Z,0.87
2018-12-02T12:38:04.228Z,0.90
2018-12-02T12:42:06.670Z,0.80
2018-12-02T12:46:09.014Z,0.63
2018-12-02T12:50:12.711Z,0.50
2018-12-02T12:54:15.131Z,0.80
2018-12-02T12:58:18.063Z,0.63
2018-12-02T13:02:20.489Z,0.50
2018-12-02T13:06:23.034Z,1.20
2018-12-02T13:10:25.498Z,0.70
2018-12-02T13:14:27.874Z,0.90
2018-12-02T13:18:30.330Z,1.07
2018-12-02T13:22:33.150Z,0.63
2018-12-02T13:26:36.180Z,1.37
2018-12-02T13:30:38.641Z,1.37
2018-12-02T13:34:41.075Z,0.80
2018-12-02T13:38:43.515Z,0.80
2018-12-02T13:42:51.305Z,0.60
2018-12-02T13:46:53.613Z,0.77
2018-12-02T13:50:56.002Z,0.63
2018-12-02T13:54:58.395Z,0.70
2018-12-02T13:59:00.815Z,1.23
2018-12-02T14:03:05.999Z,0.70
2018-12-02T14:07:08.983Z,0.60
2018-12-02T14:11:11.344Z,0.50
2018-12-02T14:16:20.135Z,0.87
2018-12-02T14:20:22.712Z,0.60
2018-12-02T14:24:25.082Z,1.07
2018-12-02T14:28:34.153Z,0.60
2018-12-02T14:32:36.550Z,0.70
2018-12-02T14:36:38.899Z,0.90
2018-12-02T14:40:42.351Z,2.07
2018-12-02T14:44:44.793Z,1.47
2018-12-02T14:48:47.196Z,0.73
2018-12-02T14:52:50.734Z,1.23
2018-12-02T14:56:53.464Z,0.73
2018-12-02T15:00:56.210Z,1.20
2018-12-02T15:04:58.738Z,1.10
2018-12-02T15:09:01.237Z,0.73
2018-12-02T15:13:03.890Z,0.87
2018-12-02T15:17:07.074Z,2.07
2018-12-02T15:21:09.578Z,1.40
2018-12-02T15:25:13.028Z,1.03
2018-12-02T15:29:15.486Z,0.60
2018-12-02T15:33:17.975Z,0.70
2018-12-02T15:37:20.402Z,1.90
2018-12-02T15:41:22.818Z,1.03
2018-12-02T15:45:25.272Z,1.30
2018-12-02T15:49:27.718Z,2.30
2018-12-02T15:53:30.140Z,1.57
2018-12-02T15:57:34.704Z,1.37
2018-12-02T16:01:37.544Z,1.00
2018-12-02T16:05:39.984Z,1.20
2018-12-02T16:09:42.368Z,1.30
2018-12-02T16:13:44.855Z,2.20
2018-12-02T16:17:48.457Z,3.97
2018-12-02T16:21:51.550Z,2.13
2018-12-02T16:25:55.284Z,3.53
2018-12-02T16:29:57.770Z,2.90
2018-12-02T16:34:00.124Z,3.00
2018-12-02T16:38:02.559Z,3.30
2018-12-02T16:42:05.038Z,2.50
2018-12-02T16:46:07.472Z,9.63
2018-12-02T16:50:29.288Z,3.00
2018-12-02T16:54:31.737Z,3.53
2018-12-02T16:58:43.138Z,2.80
2018-12-02T17:02:45.959Z,1.97
2018-12-02T17:06:48.319Z,3.23
2018-12-02T17:10:51.069Z,2.70
2018-12-02T17:14:53.470Z,3.42
2018-12-02T17:18:56.500Z,7.20
2018-12-02T17:22:58.834Z,2.83
2018-12-02T17:27:01.262Z,3.63
2018-12-02T17:31:08.814Z,6.53
2018-12-02T17:35:11.318Z,6.17
2018-12-02T17:39:16.132Z,3.97
2018-12-02T17:43:18.833Z,3.90
2018-12-02T17:47:21.298Z,4.77
2018-12-02T17:51:23.997Z,6.30
2018-12-02T17:55:26.393Z,5.73
2018-12-02T17:59:28.828Z,7.10
2018-12-02T18:03:32.655Z,6.77
2018-12-02T18:07:35.112Z,5.70
2018-12-02T18:11:38.580Z,8.60
2018-12-02T18:15:41.079Z,6.90
2018-12-02T18:19:43.509Z,6.70
2018-12-02T18:23:51.026Z,5.83
2018-12-02T18:27:53.385Z,4.97
2018-12-02T18:31:56.603Z,8.23
2018-12-02T18:36:03.021Z,7.53
2018-12-02T18:40:06.887Z,7.63
2018-12-02T18:44:11.538Z,5.60
2018-12-02T18:48:13.937Z,5.27
2018-12-02T18:52:17.470Z,8.60
2018-12-02T18:56:20.942Z,7.50
2018-12-02T19:00:29.509Z,10.10
2018-12-02T19:04:32.289Z,10.67
2018-12-02T19:08:36.257Z,14.17
2018-12-02T19:12:38.679Z,14.07
2018-12-02T19:16:41.082Z,11.30
2018-12-02T19:20:43.506Z,12.40
2018-12-02T19:24:45.873Z,11.13
2018-12-02T19:28:48.312Z,6.27
2018-12-02T19:32:50.817Z,2.53
2018-12-02T19:36:57.266Z,1.90
2018-12-02T19:41:00.287Z,1.33
2018-12-02T19:45:03.318Z,0.80
2018-12-02T19:49:05.832Z,1.10
2018-12-02T19:53:08.294Z,2.17
2018-12-02T19:57:10.640Z,0.70
2018-12-02T20:01:13.747Z,0.90
2018-12-02T20:05:16.458Z,1.53
2018-12-02T20:09:19.006Z,2.47
2018-12-02T20:13:22.297Z,2.07
2018-12-02T20:17:25.123Z,2.93
2018-12-02T20:21:27.502Z,4.50
2018-12-02T20:25:30.233Z,2.43
2018-12-02T20:29:32.661Z,4.67
2018-12-02T20:33:35.032Z,3.37
2018-12-02T20:37:37.719Z,3.67
2018-12-02T20:41:40.302Z,2.97
2018-12-02T20:45:42.673Z,3.07
2018-12-02T20:49:45.241Z,3.53
2018-12-02T20:53:47.656Z,4.47
2018-12-02T20:57:52.067Z,4.10
2018-12-02T21:01:54.548Z,14.20
2018-12-02T21:06:08.667Z,15.93
2018-12-02T21:10:11.561Z,8.63
2018-12-02T21:14:14.022Z,7.27
2018-12-02T21:18:16.378Z,6.37
2018-12-02T21:22:19.077Z,6.17
2018-12-02T21:26:21.492Z,4.20
2018-12-02T21:30:25.462Z,8.47
2018-12-02T21:34:30.056Z,6.23
2018-12-02T21:38:32.465Z,8.23
2018-12-02T21:42:34.926Z,3.30
2018-12-02T21:46:37.416Z,2.63
2018-12-02T21:50:39.768Z,3.83
2018-12-02T21:54:42.142Z,3.47
2018-12-02T21:58:44.665Z,2.20
2018-12-02T22:02:47.226Z,2.73
2018-12-02T22:06:49.670Z,3.27
2018-12-02T22:10:52.267Z,4.90
2018-12-02T22:14:55.532Z,7.03
2018-12-02T22:18:57.925Z,6.17
2018-12-02T22:23:00.346Z,8.90
2018-12-02T22:27:02.846Z,11.60
2018-12-02T22:31:05.476Z,10.37
2018-12-02T22:35:11.547Z,13.37
2018-12-02T22:39:13.974Z,14.60
2018-12-02T22:43:16.424Z,13.33
2018-12-02T22:47:18.895Z,12.00
2018-12-02T22:51:21.384Z,10.50
2018-12-02T22:55:23.821Z,13.67
2018-12-02T22:59:26.890Z,15.20
2018-12-02T23:03:29.651Z,10.20
2018-12-02T23:07:32.081Z,9.50
2018-12-02T23:11:34.441Z,6.43
2018-12-02T23:15:37.494Z,6.70
2018-12-02T23:19:39.853Z,3.37
2018-12-02T23:23:42.384Z,6.80
2018-12-02T23:27:44.788Z,3.07
2018-12-02T23:31:47.205Z,4.47
2018-12-02T23:35:49.656Z,9.33
2018-12-02T23:39:52.018Z,2.93
2018-12-02T23:43:54.462Z,2.87
2018-12-02T23:47:56.866Z,7.27
2018-12-02T23:51:59.154Z,0.57
2018-12-02T23:56:01.542Z,1.20
